Time;durP1;ratioP1;P1;durP2;ratioP2;P2;SDS_P1;SDS_P2;PMS_P1;PMS_P2;Temp;Humidity;BMP_temperature;BMP_pressure;BME280_temperature;BME280_humidity;BME280_pressure;Samples;Min_cycle;Max_cycle;Signal;HPM_P1;HPM_P2
2022/04/20 00:01:35;;;;;;;9.07;3.90;;;7.80;99.20;;;;;;5010488;28;20068;-83
2022/04/20 00:04:00;;;;;;;7.40;4.03;;;7.90;98.70;;;;;;5008855;28;20036;-82
2022/04/20 00:06:26;;;;;;;7.18;4.13;;;7.90;98.20;;;;;;5010268;28;20033;-82
2022/04/20 00:08:51;;;;;;;6.65;3.80;;;8.00;99.70;;;;;;5010618;28;20021;-82
2022/04/20 00:11:17;;;;;;;5.70;3.67;;;8.00;99.10;;;;;;5001285;28;20065;-82
2022/04/20 00:13:42;;;;;;;13.07;3.80;;;8.10;99.10;;;;;;5001461;28;20511;-83
2022/04/20 00:16:08;;;;;;;8.80;4.00;;;8.00;99.00;;;;;;4999719;28;20155;-82
2022/04/20 00:18:33;;;;;;;9.35;4.22;;;8.00;98.80;;;;;;5007310;28;20030;-82
2022/04/20 00:20:59;;;;;;;10.65;4.88;;;8.10;98.50;;;;;;5001124;28;20405;-82
2022/04/20 00:23:24;;;;;;;6.88;3.72;;;8.20;98.20;;;;;;5007791;28;20061;-82
2022/04/20 00:25:49;;;;;;;9.45;4.15;;;8.20;97.60;;;;;;4999071;28;20532;-83
2022/04/20 00:28:15;;;;;;;9.00;4.10;;;8.20;98.80;;;;;;5007275;28;20377;-83
2022/04/20 00:30:40;;;;;;;8.30;4.07;;;8.20;98.30;;;;;;5004504;28;20100;-83
2022/04/20 00:33:06;;;;;;;8.93;4.13;;;8.40;97.80;;;;;;5015148;28;20034;-82
2022/04/20 00:35:32;;;;;;;11.40;4.22;;;8.50;98.10;;;;;;5010158;28;20105;-82
2022/04/20 00:37:58;;;;;;;7.13;3.33;;;8.40;98.30;;;;;;5008921;28;20117;-82
2022/04/20 00:40:24;;;;;;;8.75;3.97;;;8.40;98.00;;;;;;5006490;28;20109;-81
2022/04/20 00:42:49;;;;;;;8.30;3.90;;;8.40;98.00;;;;;;5004276;28;20089;-82
2022/04/20 00:45:15;;;;;;;8.60;4.32;;;8.50;97.50;;;;;;5004901;28;20029;-82
2022/04/20 00:47:42;;;;;;;5.43;4.03;;;8.60;97.90;;;;;;5008659;28;20125;-82
2022/04/20 00:50:09;;;;;;;8.95;4.18;;;8.50;97.70;;;;;;5007406;28;20026;-82
2022/04/20 00:52:34;;;;;;;10.10;4.15;;;8.40;97.20;;;;;;5008218;28;20033;-82
2022/04/20 00:55:00;;;;;;;11.00;3.58;;;8.50;97.20;;;;;;4998586;28;20034;-81
2022/04/20 00:57:26;;;;;;;7.32;4.00;;;8.50;97.50;;;;;;5014784;28;20098;-80
2022/04/20 00:59:54;;;;;;;7.32;3.88;;;8.50;97.50;;;;;;5006074;28;20033;-81
2022/04/20 01:02:21;;;;;;;7.43;3.17;;;8.60;97.30;;;;;;5008582;28;20026;-82
2022/04/20 01:04:47;;;;;;;8.80;3.55;;;8.60;97.60;;;;;;5008327;28;20025;-82
2022/04/20 01:07:13;;;;;;;7.03;3.58;;;8.50;97.30;;;;;;5009948;28;20022;-82
2022/04/20 01:09:40;;;;;;;6.03;2.88;;;8.50;97.70;;;;;;5008792;28;20107;-81
2022/04/20 01:12:07;;;;;;;6.32;2.95;;;8.60;97.60;;;;;;4995525;28;20521;-81
2022/04/20 01:14:32;;;;;;;3.30;2.55;;;8.60;97.50;;;;;;5020981;28;20091;-81
2022/04/20 01:16:58;;;;;;;4.22;2.45;;;8.60;97.20;;;;;;5010534;28;20121;-80
2022/04/20 01:19:34;;;;;;;7.40;2.92;;;8.60;96.90;;;;;;5007774;28;20033;-84
2022/04/20 01:22:01;;;;;;;5.78;2.90;;;8.60;97.70;;;;;;5017214;28;20064;-81
2022/04/20 01:24:26;;;;;;;8.10;2.67;;;8.60;97.70;;;;;;5022943;28;20480;-81
2022/04/20 01:26:52;;;;;;;7.72;2.70;;;8.60;98.00;;;;;;5001433;28;20030;-81
2022/04/20 01:29:20;;;;;;;4.28;2.60;;;8.60;97.90;;;;;;5010924;28;20487;-81
2022/04/20 01:31:45;;;;;;;8.30;2.45;;;8.60;97.50;;;;;;5013344;28;20388;-81
2022/04/20 01:34:11;;;;;;;5.97;2.70;;;8.60;97.30;;;;;;4999668;28;20037;-82
2022/04/20 01:36:37;;;;;;;7.55;2.70;;;8.60;97.50;;;;;;5007574;28;20095;-83
2022/04/20 01:39:05;;;;;;;5.25;2.50;;;8.70;97.90;;;;;;5008574;28;20468;-82
2022/04/20 01:41:31;;;;;;;5.93;2.75;;;8.70;97.30;;;;;;5007742;28;20480;-83
2022/04/20 01:43:56;;;;;;;6.60;3.20;;;8.70;97.50;;;;;;5006973;28;20036;-82
2022/04/20 01:46:22;;;;;;;8.07;2.78;;;8.70;97.80;;;;;;5008644;28;20417;-83
2022/04/20 01:48:47;;;;;;;5.38;2.88;;;8.60;97.80;;;;;;5013710;28;20026;-82
2022/04/20 01:53:57;;;;;;;7.32;2.80;;;8.60;98.20;;;;;;5009019;28;20036;-82
2022/04/20 01:56:22;;;;;;;7.63;2.90;;;8.60;98.80;;;;;;5004686;28;20105;-83
2022/04/20 01:58:48;;;;;;;4.47;2.70;;;8.60;98.70;;;;;;5004081;28;20068;-83
2022/04/20 02:03:57;;;;;;;7.60;2.92;;;8.40;99.50;;;;;;5014885;28;20029;-82
2022/04/20 02:06:22;;;;;;;5.38;2.95;;;8.30;99.90;;;;;;5009067;28;20023;-83
2022/04/20 02:08:48;;;;;;;5.75;2.92;;;8.40;99.90;;;;;;5008672;28;20046;-83
2022/04/20 02:11:13;;;;;;;7.82;3.50;;;8.30;99.90;;;;;;5011091;28;20104;-83
2022/04/20 02:13:39;;;;;;;6.00;3.10;;;8.30;99.90;;;;;;5017413;28;20380;-83
2022/04/20 02:16:05;;;;;;;5.97;3.53;;;8.30;99.90;;;;;;5003903;28;20081;-82
2022/04/20 02:18:31;;;;;;;6.05;3.08;;;8.30;99.90;;;;;;5009761;28;20042;-83
2022/04/20 02:20:56;;;;;;;8.50;2.75;;;8.20;99.90;;;;;;5006098;28;20037;-82
2022/04/20 02:23:22;;;;;;;6.03;3.00;;;8.20;99.90;;;;;;5011635;28;20141;-82
2022/04/20 02:25:48;;;;;;;5.25;3.17;;;8.20;99.90;;;;;;5012451;28;20030;-82
2022/04/20 02:28:13;;;;;;;6.95;3.10;;;8.20;99.90;;;;;;5012863;28;20172;-82
2022/04/20 02:30:38;;;;;;;5.10;3.13;;;8.20;99.90;;;;;;5012006;28;20037;-82
2022/04/20 02:33:04;;;;;;;8.02;2.92;;;8.20;99.90;;;;;;5005137;28;20037;-82
2022/04/20 02:35:30;;;;;;;6.78;3.20;;;8.20;99.90;;;;;;5012310;28;20026;-83
2022/04/20 02:37:56;;;;;;;7.25;2.95;;;8.10;99.90;;;;;;5013254;28;20104;-82
2022/04/20 02:40:21;;;;;;;6.47;2.92;;;8.10;99.90;;;;;;5009251;28;20081;-82
2022/04/20 02:42:48;;;;;;;5.47;2.83;;;8.10;99.90;;;;;;5012920;28;20025;-82
2022/04/20 02:45:14;;;;;;;9.75;3.28;;;8.00;99.90;;;;;;5009300;28;20116;-83
2022/04/20 02:47:39;;;;;;;4.45;3.20;;;8.10;99.90;;;;;;5011064;28;20057;-83
2022/04/20 02:50:05;;;;;;;6.85;2.90;;;8.20;99.90;;;;;;5012852;28;20025;-83
2022/04/20 02:52:31;;;;;;;6.60;3.30;;;8.30;99.90;;;;;;5007686;28;20025;-82
2022/04/20 02:54:56;;;;;;;6.20;3.10;;;8.40;99.90;;;;;;5012276;28;20030;-82
2022/04/20 02:57:22;;;;;;;5.18;3.00;;;8.50;99.90;;;;;;5010334;28;20022;-83
2022/04/20 02:59:47;;;;;;;5.90;3.17;;;8.50;99.90;;;;;;5012497;28;20109;-83
2022/04/20 03:02:12;;;;;;;7.55;3.05;;;8.50;99.90;;;;;;5010919;28;20480;-82
2022/04/20 03:04:38;;;;;;;4.00;3.05;;;8.50;99.90;;;;;;5013307;28;20044;-82
2022/04/20 03:07:04;;;;;;;9.93;3.40;;;8.60;99.90;;;;;;5006517;28;20049;-84
2022/04/20 03:09:29;;;;;;;6.32;2.95;;;8.50;99.90;;;;;;5005532;28;20100;-82
2022/04/20 03:11:55;;;;;;;6.18;3.30;;;8.60;99.90;;;;;;5012425;28;20026;-84
2022/04/20 03:14:20;;;;;;;6.20;3.20;;;8.60;99.90;;;;;;5014911;28;20465;-83
2022/04/20 03:16:46;;;;;;;6.30;2.88;;;8.60;99.90;;;;;;5018505;28;20113;-82
2022/04/20 03:19:11;;;;;;;4.68;2.80;;;8.70;99.90;;;;;;5015097;28;20061;-80
2022/04/20 03:21:36;;;;;;;9.60;3.00;;;8.70;99.90;;;;;;5015237;28;20428;-77
2022/04/20 03:24:02;;;;;;;4.45;3.00;;;8.60;99.90;;;;;;5010360;28;20022;-78
2022/04/20 03:26:28;;;;;;;6.43;3.67;;;8.70;99.90;;;;;;5006724;28;20026;-78
2022/04/20 03:28:54;;;;;;;7.28;3.42;;;8.70;99.90;;;;;;5010804;28;20072;-80
2022/04/20 03:31:19;;;;;;;7.20;3.47;;;8.70;99.90;;;;;;5021303;28;20424;-77
2022/04/20 03:33:45;;;;;;;8.10;3.40;;;8.60;99.90;;;;;;5008126;28;20033;-76
2022/04/20 03:36:11;;;;;;;6.80;3.97;;;8.60;99.90;;;;;;5012287;28;20041;-75
2022/04/20 03:38:37;;;;;;;7.40;3.47;;;8.60;99.90;;;;;;5011050;28;20401;-74
2022/04/20 03:41:04;;;;;;;7.07;3.65;;;8.70;99.90;;;;;;5015137;28;20033;-75
2022/04/20 03:43:30;;;;;;;7.28;3.80;;;8.70;99.90;;;;;;5012267;28;20037;-83
2022/04/20 03:45:55;;;;;;;6.10;3.72;;;8.80;99.90;;;;;;5016786;28;20030;-84
2022/04/20 03:48:22;;;;;;;6.53;3.92;;;8.70;99.90;;;;;;5018320;28;20069;-75
2022/04/20 03:50:48;;;;;;;8.57;4.05;;;8.60;99.90;;;;;;5008764;28;20362;-76
2022/04/20 03:53:13;;;;;;;7.72;3.75;;;8.60;99.90;;;;;;5009818;28;20048;-76
2022/04/20 03:55:39;;;;;;;8.35;4.13;;;8.60;99.90;;;;;;5009482;28;20022;-76
2022/04/20 03:58:05;;;;;;;8.82;4.30;;;8.60;99.90;;;;;;5018454;28;20113;-77
2022/04/20 04:00:31;;;;;;;9.55;4.22;;;8.70;99.90;;;;;;5013847;28;20104;-77
2022/04/20 04:02:57;;;;;;;7.32;3.65;;;8.70;99.90;;;;;;5012672;28;20029;-78
2022/04/20 04:05:23;;;;;;;8.98;4.40;;;8.60;99.90;;;;;;5008198;28;20266;-77
2022/04/20 04:07:49;;;;;;;9.85;4.57;;;8.60;99.90;;;;;;5026368;28;20025;-77
2022/04/20 04:10:14;;;;;;;7.53;4.25;;;8.70;99.90;;;;;;5029992;28;20136;-77
2022/04/20 04:12:40;;;;;;;12.82;4.40;;;8.70;99.90;;;;;;5020456;28;20076;-77
2022/04/20 04:15:06;;;;;;;9.32;4.60;;;8.80;99.90;;;;;;5010899;28;20449;-77
2022/04/20 04:17:32;;;;;;;11.05;4.60;;;8.90;99.90;;;;;;5024440;28;20396;-77
2022/04/20 04:19:58;;;;;;;7.13;4.10;;;8.80;99.90;;;;;;5030347;28;20392;-77
2022/04/20 04:22:23;;;;;;;13.40;4.88;;;8.80;99.90;;;;;;5023877;28;20026;-77
2022/04/20 04:24:49;;;;;;;9.55;4.40;;;8.90;99.90;;;;;;5000826;28;20575;-77
2022/04/20 04:27:15;;;;;;;7.90;4.53;;;8.90;99.90;;;;;;5009660;28;20032;-77
2022/04/20 04:29:41;;;;;;;7.65;4.80;;;8.90;99.90;;;;;;5009728;28;20528;-77
2022/04/20 04:32:15;;;;;;;8.88;5.05;;;8.80;99.90;;;;;;5009599;28;20465;-78
2022/04/20 04:34:40;;;;;;;6.45;4.45;;;8.90;99.90;;;;;;5012799;28;20034;-77
2022/04/20 04:37:09;;;;;;;9.65;4.47;;;9.00;99.90;;;;;;5010180;28;20045;-76
2022/04/20 04:39:34;;;;;;;10.07;5.15;;;8.90;99.90;;;;;;5005983;28;20052;-77
2022/04/20 04:42:00;;;;;;;10.43;4.25;;;9.00;99.90;;;;;;5020409;28;20112;-77
2022/04/20 04:44:27;;;;;;;8.63;4.60;;;9.00;99.90;;;;;;5011588;28;20030;-77
2022/04/20 04:49:36;;;;;;;9.38;4.85;;;8.90;99.90;;;;;;5000361;28;20108;-77
2022/04/20 04:52:02;;;;;;;9.05;5.35;;;9.00;99.90;;;;;;5011071;28;20037;-77
2022/04/20 04:54:28;;;;;;;8.77;4.75;;;9.00;99.90;;;;;;5008663;28;20026;-77
2022/04/20 04:56:53;;;;;;;11.18;4.85;;;9.10;99.90;;;;;;5006230;28;20041;-77
2022/04/20 04:59:19;;;;;;;8.57;4.65;;;9.10;99.90;;;;;;5009667;28;20530;-77
2022/04/20 05:01:45;;;;;;;8.30;4.30;;;9.20;99.90;;;;;;5008996;28;20022;-77
2022/04/20 05:04:11;;;;;;;9.88;4.55;;;9.20;99.90;;;;;;5014252;28;20021;-77
2022/04/20 05:06:37;;;;;;;8.60;4.50;;;9.20;99.90;;;;;;5019109;28;20021;-77
2022/04/20 05:09:03;;;;;;;8.15;5.28;;;9.20;99.90;;;;;;5008577;28;20056;-77
2022/04/20 05:11:28;;;;;;;10.15;4.60;;;9.20;99.90;;;;;;5009273;28;20034;-77
2022/04/20 05:13:54;;;;;;;9.50;5.22;;;9.10;99.90;;;;;;5008147;28;20038;-77
2022/04/20 05:16:20;;;;;;;11.23;5.10;;;8.90;99.90;;;;;;5022996;28;20068;-77
2022/04/20 05:18:46;;;;;;;8.23;4.93;;;9.00;99.90;;;;;;5005774;28;20053;-77
2022/04/20 05:21:11;;;;;;;6.72;4.53;;;8.90;99.90;;;;;;5006975;28;20046;-78
2022/04/20 05:23:37;;;;;;;8.32;4.95;;;9.00;99.90;;;;;;5014642;28;20022;-77
2022/04/20 05:26:02;;;;;;;7.95;4.68;;;9.00;99.90;;;;;;5008031;28;20497;-78
2022/04/20 05:28:28;;;;;;;10.88;5.47;;;9.00;99.90;;;;;;5007456;28;20026;-77
2022/04/20 05:30:54;;;;;;;12.93;5.63;;;8.90;99.90;;;;;;5002488;28;20116;-77
2022/04/20 05:33:20;;;;;;;10.05;5.00;;;8.80;99.90;;;;;;5006219;28;20064;-77
2022/04/20 05:35:45;;;;;;;9.45;4.70;;;8.80;99.90;;;;;;5008381;28;20049;-77
2022/04/20 05:43:39;;;;;;;8.32;5.38;;;8.80;99.90;;;;;;5007255;28;20033;-77
2022/04/20 05:46:05;;;;;;;11.20;5.05;;;8.70;99.90;;;;;;5007882;28;20029;-77
2022/04/20 05:48:31;;;;;;;8.30;5.93;;;8.60;99.90;;;;;;5008284;28;20478;-77
2022/04/20 05:50:57;;;;;;;8.23;5.25;;;8.60;99.90;;;;;;5007522;28;20679;-77
2022/04/20 05:53:22;;;;;;;12.35;6.03;;;8.70;99.90;;;;;;5009363;28;20065;-77
2022/04/20 05:55:48;;;;;;;8.82;5.00;;;8.80;99.90;;;;;;5009796;28;20043;-77
2022/04/20 05:58:14;;;;;;;9.50;5.63;;;8.90;99.90;;;;;;5010646;28;20053;-78
2022/04/20 06:00:39;;;;;;;11.52;5.47;;;8.90;99.90;;;;;;5014628;28;20450;-77
2022/04/20 06:03:05;;;;;;;8.35;5.13;;;8.90;99.90;;;;;;5010584;28;20026;-77
2022/04/20 06:05:30;;;;;;;9.63;5.45;;;8.90;99.90;;;;;;5009893;28;20029;-77
2022/04/20 06:07:56;;;;;;;7.88;4.70;;;8.80;99.90;;;;;;5010179;28;20062;-77
2022/04/20 06:10:21;;;;;;;8.60;5.60;;;8.80;99.90;;;;;;5011435;28;20443;-77
2022/04/20 06:12:47;;;;;;;9.77;5.28;;;8.90;99.90;;;;;;5012227;28;20034;-77
2022/04/20 06:15:12;;;;;;;7.95;4.85;;;8.90;99.90;;;;;;5008584;28;20057;-77
2022/04/20 06:17:38;;;;;;;10.38;5.55;;;8.90;99.90;;;;;;5007161;28;20022;-77
2022/04/20 06:20:05;;;;;;;10.52;5.15;;;8.90;99.90;;;;;;5013256;28;20031;-76
2022/04/20 06:22:31;;;;;;;10.23;5.25;;;8.90;99.90;;;;;;5020275;28;20030;-76
2022/04/20 06:24:59;;;;;;;7.97;4.78;;;9.00;99.90;;;;;;4998508;28;20033;-77
2022/04/20 06:27:31;;;;;;;7.75;5.15;;;9.20;99.90;;;;;;4995641;28;20155;-79
2022/04/20 06:29:57;;;;;;;7.22;4.47;;;9.10;99.90;;;;;;5006938;28;20045;-77
2022/04/20 06:32:27;;;;;;;7.47;4.28;;;9.20;99.90;;;;;;5011414;28;20030;-76
2022/04/20 06:34:54;;;;;;;7.38;4.50;;;9.40;99.90;;;;;;5006532;28;20061;-75
2022/04/20 06:37:19;;;;;;;5.38;4.40;;;9.40;99.90;;;;;;5007838;28;20038;-76
2022/04/20 06:39:45;;;;;;;9.10;4.57;;;9.40;99.90;;;;;;5014427;28;20021;-76
2022/04/20 06:42:11;;;;;;;8.73;4.25;;;9.30;99.90;;;;;;5016683;28;20108;-76
2022/04/20 06:44:37;;;;;;;11.93;4.63;;;9.30;99.90;;;;;;5006369;28;20117;-77
2022/04/20 06:47:02;;;;;;;7.55;4.68;;;9.70;99.90;;;;;;5009592;28;20034;-77
2022/04/20 06:49:28;;;;;;;10.20;5.28;;;10.00;99.90;;;;;;5008285;28;20109;-77
2022/04/20 07:00:08;;;;;;;9.00;4.43;;;10.50;98.30;;;;;;5005893;28;20099;-78
2022/04/20 07:02:33;;;;;;;7.60;3.80;;;10.60;97.80;;;;;;5013783;28;20053;-77
2022/04/20 07:04:59;;;;;;;4.80;3.83;;;10.70;98.20;;;;;;5028884;28;20029;-78
2022/04/20 07:07:24;;;;;;;6.00;3.92;;;10.60;97.10;;;;;;5031641;28;20017;-78
2022/04/20 07:09:50;;;;;;;6.07;3.92;;;10.70;97.20;;;;;;5011968;28;20493;-85
2022/04/20 07:12:15;;;;;;;5.63;3.70;;;10.80;96.10;;;;;;5015925;28;20030;-81
2022/04/20 07:14:41;;;;;;;9.15;3.83;;;10.90;95.50;;;;;;5010808;28;20132;-81
2022/04/20 07:17:07;;;;;;;7.38;3.63;;;11.10;94.40;;;;;;5021619;28;20485;-83
2022/04/20 07:19:34;;;;;;;5.43;3.70;;;11.10;94.60;;;;;;5029332;28;20052;-89
2022/04/20 07:21:59;;;;;;;4.47;3.72;;;11.30;93.50;;;;;;5018877;28;20957;-87
2022/04/20 07:24:25;;;;;;;6.28;3.92;;;11.40;93.10;;;;;;5011432;28;20121;-87
2022/04/20 07:26:51;;;;;;;7.38;3.60;;;11.50;93.30;;;;;;5030975;28;20057;-89
2022/04/20 07:29:16;;;;;;;6.45;3.92;;;11.60;92.90;;;;;;5030853;28;20029;-85
2022/04/20 07:31:42;;;;;;;6.20;3.70;;;11.60;93.40;;;;;;5027741;28;20037;-84
2022/04/20 07:34:07;;;;;;;7.90;4.28;;;11.40;93.20;;;;;;5020392;28;20507;-84
2022/04/20 07:36:33;;;;;;;6.93;3.92;;;11.40;93.80;;;;;;5020053;28;20079;-85
2022/04/20 07:38:58;;;;;;;6.32;3.90;;;11.40;93.10;;;;;;5026503;28;20488;-84
2022/04/20 07:41:24;;;;;;;6.97;4.00;;;11.30;93.80;;;;;;5018539;28;20485;-86
2022/04/20 07:43:49;;;;;;;7.68;3.75;;;11.30;94.10;;;;;;5012698;28;20030;-82
2022/04/20 07:46:17;;;;;;;10.85;4.03;;;11.40;93.30;;;;;;5023698;28;20072;-83
2022/04/20 07:48:43;;;;;;;7.13;3.60;;;11.40;91.50;;;;;;5024429;28;20060;-79
2022/04/20 07:51:09;;;;;;;5.60;3.13;;;11.40;90.70;;;;;;5028771;28;20034;-82
2022/04/20 07:53:34;;;;;;;4.38;3.17;;;11.50;90.10;;;;;;5017112;28;20029;-83
2022/04/20 07:56:00;;;;;;;5.20;2.95;;;11.80;90.40;;;;;;5027737;28;20472;-82
2022/04/20 07:58:25;;;;;;;6.18;3.50;;;12.00;87.50;;;;;;5012703;28;20036;-82
2022/04/20 08:00:53;;;;;;;6.40;3.50;;;12.20;85.70;;;;;;5010838;28;20021;-82
2022/04/20 08:03:19;;;;;;;4.60;3.15;;;12.40;87.10;;;;;;5010915;28;20045;-82
2022/04/20 08:05:52;;;;;;;4.60;2.90;;;12.60;84.10;;;;;;5011728;28;20033;-82
2022/04/20 08:08:18;;;;;;;5.20;2.83;;;12.70;82.80;;;;;;5010350;28;20251;-83
2022/04/20 08:10:44;;;;;;;4.47;2.55;;;12.90;81.80;;;;;;5019440;28;20049;-82
2022/04/20 08:15:55;;;;;;;4.70;2.33;;;12.90;74.70;;;;;;5022792;28;20040;-82
2022/04/20 08:18:21;;;;;;;3.25;2.33;;;12.90;72.50;;;;;;5030083;28;20079;-82
2022/04/20 08:20:47;;;;;;;4.82;2.47;;;12.70;71.60;;;;;;5023343;28;20034;-83
2022/04/20 08:23:14;;;;;;;4.78;2.67;;;12.80;73.50;;;;;;5010130;28;20050;-82
2022/04/20 08:25:40;;;;;;;6.40;2.42;;;12.90;71.50;;;;;;5018414;28;20049;-82
2022/04/20 08:28:07;;;;;;;5.40;2.22;;;12.80;73.00;;;;;;5008739;28;20065;-82
2022/04/20 08:30:36;;;;;;;6.63;2.70;;;13.10;72.80;;;;;;5011283;28;20026;-83
2022/04/20 08:33:06;;;;;;;2.72;2.17;;;13.40;71.10;;;;;;5011007;28;20034;-82
2022/04/20 08:35:32;;;;;;;3.28;2.00;;;13.40;69.20;;;;;;5023703;28;20113;-82
2022/04/20 08:37:57;;;;;;;4.50;2.42;;;13.40;67.90;;;;;;5017923;28;20072;-82
2022/04/20 08:40:24;;;;;;;3.00;1.98;;;13.40;67.30;;;;;;5030002;28;20060;-82
2022/04/20 08:42:50;;;;;;;4.75;2.05;;;13.40;69.10;;;;;;5004112;28;20057;-81
2022/04/20 08:45:17;;;;;;;6.13;2.30;;;13.70;68.00;;;;;;5010113;28;20050;-81
2022/04/20 08:47:44;;;;;;;5.45;2.22;;;13.80;67.90;;;;;;5006291;28;20041;-82
2022/04/20 08:50:10;;;;;;;4.03;2.10;;;13.70;67.30;;;;;;5009492;28;20646;-80
2022/04/20 08:52:39;;;;;;;3.13;2.20;;;13.70;66.80;;;;;;5011600;28;20107;-83
2022/04/20 08:55:15;;;;;;;3.22;1.73;;;13.50;66.70;;;;;;5008067;28;20040;-83
2022/04/20 08:57:44;;;;;;;5.97;2.33;;;13.40;68.70;;;;;;5008318;28;20111;-83
2022/04/20 09:00:30;;;;;;;4.38;2.17;;;13.10;69.90;;;;;;5010254;28;20548;-84
2022/04/20 09:02:57;;;;;;;3.65;1.95;;;12.90;71.20;;;;;;5009093;28;20029;-83
2022/04/20 09:05:25;;;;;;;3.88;2.00;;;12.90;73.50;;;;;;5009467;28;20022;-84
2022/04/20 09:07:51;;;;;;;4.60;2.58;;;13.00;72.40;;;;;;5011333;28;20030;-84
2022/04/20 09:10:17;;;;;;;4.65;2.20;;;12.90;74.40;;;;;;5012058;28;20034;-82
2022/04/20 09:12:44;;;;;;;5.40;2.30;;;13.00;75.50;;;;;;5006424;28;20026;-87
2022/04/20 09:15:27;;;;;;;4.45;2.03;;;13.00;77.40;;;;;;5009490;28;20593;-84
2022/04/20 09:17:52;;;;;;;3.30;2.00;;;13.30;78.80;;;;;;5007956;28;20489;-86
2022/04/20 09:20:19;;;;;;;4.32;2.40;;;13.30;79.20;;;;;;5006816;28;20032;-85
2022/04/20 09:23:02;;;;;;;3.85;2.20;;;13.40;81.30;;;;;;5007983;28;20034;-85
2022/04/20 09:25:33;;;;;;;5.10;2.20;;;12.80;84.70;;;;;;5008491;28;20121;-85
2022/04/20 09:27:59;;;;;;;4.22;2.33;;;12.90;84.80;;;;;;5008370;28;20022;-85
2022/04/20 09:30:24;;;;;;;5.78;2.50;;;12.80;84.00;;;;;;5008445;28;20033;-86
2022/04/20 09:32:50;;;;;;;6.60;2.83;;;13.00;87.30;;;;;;5007273;28;20084;-85
2022/04/20 09:35:18;;;;;;;5.38;2.85;;;13.30;87.00;;;;;;5022826;28;20629;-85
2022/04/20 09:37:44;;;;;;;4.28;2.20;;;13.60;85.30;;;;;;5008770;28;20048;-86
2022/04/20 09:40:12;;;;;;;5.88;2.40;;;13.80;83.10;;;;;;5007168;28;20389;-86
2022/04/20 09:43:03;;;;;;;4.13;2.20;;;13.80;80.90;;;;;;5008357;28;20029;-86
2022/04/20 09:45:30;;;;;;;2.83;2.38;;;13.80;84.90;;;;;;5017589;28;20475;-85
2022/04/20 09:50:42;;;;;;;5.45;2.50;;;13.90;76.90;;;;;;5007104;28;20461;-86
2022/04/20 09:53:12;;;;;;;4.53;2.30;;;14.00;78.90;;;;;;5010109;28;20057;-86
2022/04/20 09:55:39;;;;;;;7.40;2.58;;;14.00;79.10;;;;;;5007358;28;20021;-86
2022/04/20 09:58:11;;;;;;;4.35;2.58;;;14.20;79.50;;;;;;5010440;28;20056;-86
2022/04/20 10:00:39;;;;;;;6.68;2.70;;;14.20;76.60;;;;;;5007680;28;20030;-86
2022/04/20 10:03:05;;;;;;;3.55;2.55;;;14.40;77.00;;;;;;5008728;28;20049;-86
2022/04/20 10:05:31;;;;;;;5.07;2.50;;;14.50;77.20;;;;;;5004180;28;20022;-85
2022/04/20 10:07:59;;;;;;;4.38;2.47;;;14.60;77.00;;;;;;5014171;28;20030;-86
2022/04/20 10:10:34;;;;;;;4.45;2.90;;;14.70;76.20;;;;;;5006825;28;20076;-85
2022/04/20 10:13:02;;;;;;;4.10;2.53;;;14.90;74.90;;;;;;5009047;28;20033;-87
2022/04/20 10:18:18;;;;;;;5.05;2.50;;;14.90;81.10;;;;;;5010394;28;20025;-84
2022/04/20 10:20:47;;;;;;;5.65;3.08;;;14.80;82.70;;;;;;5022074;28;20681;-89
2022/04/20 10:23:15;;;;;;;7.85;3.30;;;14.50;79.40;;;;;;5011623;28;20037;-93
2022/04/20 10:25:40;;;;;;;4.63;2.67;;;14.30;82.40;;;;;;5011564;28;20053;-85
2022/04/20 10:28:45;;;;;;;5.88;2.80;;;14.00;80.20;;;;;;5012892;28;20045;-94
2022/04/20 10:31:38;;;;;;;3.78;3.30;;;14.10;82.30;;;;;;5010207;28;20049;-94
2022/04/20 10:34:04;;;;;;;4.53;2.33;;;14.20;83.20;;;;;;5009448;28;20038;-91
2022/04/20 10:36:32;;;;;;;4.00;3.20;;;14.20;83.00;;;;;;5022640;28;20025;-90
2022/04/20 10:39:18;;;;;;;6.30;2.83;;;13.90;82.90;;;;;;5018681;28;20226;-94
2022/04/20 10:42:11;;;;;;;11.77;3.00;;;13.80;86.50;;;;;;5007810;28;20092;-93
2022/04/20 10:44:55;;;;;;;6.72;2.50;;;13.70;90.10;;;;;;5006684;28;20057;-95
2022/04/20 10:47:25;;;;;;;4.38;2.70;;;13.70;85.70;;;;;;5012627;28;20385;-93
2022/04/20 10:49:51;;;;;;;4.45;2.63;;;13.50;86.30;;;;;;5009886;28;20396;-94
2022/04/20 10:52:24;;;;;;;4.28;2.67;;;13.40;83.40;;;;;;5009653;28;20060;-94
2022/04/20 10:54:51;;;;;;;6.28;3.00;;;13.50;85.80;;;;;;5009893;28;20103;-93
2022/04/20 10:57:17;;;;;;;10.60;3.10;;;13.60;84.40;;;;;;5013602;28;20109;-85
2022/04/20 10:59:43;;;;;;;4.10;2.65;;;13.70;82.30;;;;;;5011158;28;20116;-84
2022/04/20 11:02:11;;;;;;;4.40;2.95;;;13.90;84.50;;;;;;5012668;28;20033;-84
2022/04/20 11:04:46;;;;;;;4.18;2.35;;;14.20;84.30;;;;;;5010494;28;20400;-85
2022/04/20 11:07:20;;;;;;;3.28;2.45;;;14.50;84.70;;;;;;5011354;28;20020;-85
2022/04/20 11:09:56;;;;;;;3.85;2.42;;;14.80;79.00;;;;;;5017313;28;20136;-84
2022/04/20 11:21:04;;;;;;;2.15;1.90;;;14.90;78.80;;;;;;5012152;28;20141;-80
2022/04/20 11:23:58;;;;;;;2.78;2.30;;;14.90;78.70;;;;;;5013328;28;20112;-81
2022/04/20 11:26:40;;;;;;;3.30;2.40;;;14.80;78.50;;;;;;5005954;28;20021;-81
2022/04/20 11:29:14;;;;;;;3.03;2.20;;;15.00;77.40;;;;;;5010413;28;20539;-81
2022/04/20 11:31:51;;;;;;;5.75;2.40;;;15.10;77.30;;;;;;5014189;28;20496;-81
2022/04/20 11:34:20;;;;;;;3.65;2.03;;;15.30;75.40;;;;;;5010964;28;20393;-81
2022/04/20 11:36:51;;;;;;;3.38;2.20;;;15.30;76.10;;;;;;5011094;28;20029;-80
2022/04/20 11:39:19;;;;;;;2.95;2.30;;;15.30;75.30;;;;;;5013597;28;20687;-86
2022/04/20 11:41:46;;;;;;;8.45;2.58;;;15.20;75.40;;;;;;5019257;28;20429;-81
2022/04/20 11:44:22;;;;;;;4.22;2.40;;;15.20;72.90;;;;;;5016717;28;20049;-82
2022/04/20 11:46:49;;;;;;;3.47;2.50;;;15.10;74.30;;;;;;5011090;28;20026;-79
2022/04/20 11:49:15;;;;;;;5.47;2.25;;;15.10;73.80;;;;;;5011176;28;20546;-79
2022/04/20 11:51:57;;;;;;;4.45;2.38;;;15.30;73.00;;;;;;5008928;28;20073;-80
2022/04/20 11:54:24;;;;;;;4.55;2.47;;;15.60;70.60;;;;;;5005644;28;20535;-79
2022/04/20 11:56:50;;;;;;;7.20;2.70;;;15.50;72.30;;;;;;5011038;28;20103;-79
2022/04/20 11:59:21;;;;;;;8.80;2.70;;;15.70;71.70;;;;;;5014104;28;20481;-80
2022/04/20 12:01:47;;;;;;;3.63;2.60;;;16.00;67.70;;;;;;5009955;28;20503;-79
2022/04/20 12:04:20;;;;;;;5.97;2.65;;;16.10;65.70;;;;;;5014830;28;20022;-79
2022/04/20 12:06:45;;;;;;;3.75;2.40;;;16.30;66.90;;;;;;5011238;28;20040;-87
2022/04/20 12:09:11;;;;;;;4.70;2.92;;;16.40;66.70;;;;;;5007652;28;20038;-82
2022/04/20 12:11:37;;;;;;;7.57;2.90;;;16.50;66.00;;;;;;5020272;28;20025;-78
2022/04/20 12:14:03;;;;;;;5.03;2.85;;;16.90;65.90;;;;;;5009714;28;20030;-81
2022/04/20 12:16:34;;;;;;;9.43;3.15;;;17.30;64.70;;;;;;5010002;28;20065;-81
2022/04/20 12:18:59;;;;;;;6.00;3.17;;;17.50;63.90;;;;;;5009757;28;20033;-76
2022/04/20 12:21:45;;;;;;;11.82;3.22;;;17.60;62.30;;;;;;5012751;28;20038;-77
2022/04/20 12:24:30;;;;;;;11.23;2.75;;;18.20;62.70;;;;;;5015165;28;20113;-77
2022/04/20 12:26:58;;;;;;;7.53;2.85;;;18.70;60.00;;;;;;5005037;28;20177;-77
2022/04/20 12:29:29;;;;;;;3.67;2.28;;;18.60;59.80;;;;;;5007297;28;20022;-81
2022/04/20 12:31:55;;;;;;;;;;;18.80;59.30;;;;;;5012057;28;20022;-76
2022/04/20 12:34:23;;;;;;;4.65;2.63;;;18.60;57.20;;;;;;5011115;28;19909;-80
2022/04/20 12:36:53;;;;;;;5.38;3.20;;;18.00;57.90;;;;;;5013193;28;20108;-76
2022/04/20 12:39:34;;;;;;;7.05;2.80;;;18.20;59.30;;;;;;5029718;28;20400;-79
2022/04/20 12:42:13;;;;;;;9.25;2.67;;;18.70;60.20;;;;;;5011361;28;20030;-77
2022/04/20 12:44:52;;;;;;;4.90;2.90;;;19.40;58.80;;;;;;5012255;28;20132;-81
2022/04/20 12:47:21;;;;;;;5.32;2.88;;;19.60;57.10;;;;;;5004724;28;20029;-81
2022/04/20 12:49:50;;;;;;;3.85;2.70;;;19.20;57.40;;;;;;5010460;28;20026;-79
2022/04/20 12:52:19;;;;;;;3.75;2.30;;;18.50;57.60;;;;;;5013807;28;20072;-77
2022/04/20 12:55:13;;;;;;;8.32;3.08;;;17.60;58.20;;;;;;5009226;28;20033;-78
2022/04/20 13:03:35;;;;;;;4.57;2.50;;;17.10;60.40;;;;;;5007420;28;20072;-78
2022/04/20 13:06:01;;;;;;;5.40;2.85;;;16.70;60.20;;;;;;5011827;28;20036;-78
2022/04/20 13:08:27;;;;;;;5.57;2.60;;;16.60;62.80;;;;;;5015444;28;20381;-77
2022/04/20 13:10:52;;;;;;;5.25;2.88;;;16.40;61.30;;;;;;5022792;28;20052;-78
2022/04/20 13:13:24;;;;;;;4.70;2.83;;;16.30;61.00;;;;;;5008300;28;20408;-77
2022/04/20 13:15:50;;;;;;;5.00;3.10;;;16.20;61.90;;;;;;5011964;28;20034;-77
2022/04/20 13:18:15;;;;;;;5.43;2.70;;;16.20;63.10;;;;;;5012329;28;20048;-76
2022/04/20 13:20:41;;;;;;;4.97;2.58;;;16.30;63.10;;;;;;5016202;28;20121;-77
2022/04/20 13:23:06;;;;;;;2.90;2.30;;;16.40;62.90;;;;;;5015519;28;20056;-77
2022/04/20 13:28:16;;;;;;;4.40;2.67;;;16.50;63.20;;;;;;5016929;28;20044;-76
2022/04/20 13:30:41;;;;;;;4.68;2.53;;;16.70;63.40;;;;;;5009224;28;20109;-76
2022/04/20 13:33:10;;;;;;;4.90;2.22;;;16.80;61.70;;;;;;5014765;28;20036;-77
2022/04/20 13:35:37;;;;;;;2.92;2.35;;;16.40;61.10;;;;;;5006793;28;20105;-77
2022/04/20 13:38:03;;;;;;;5.22;2.80;;;16.10;62.50;;;;;;5009561;28;20035;-77
2022/04/20 13:40:30;;;;;;;9.18;2.70;;;16.00;63.40;;;;;;5008511;28;20034;-77